sensor_id;sensor_type;location;lat;lon;timestamp;temperature;humidity
71837;DHT22;59686;51.716;7.016;2024-02-16T00:00:09;12.70;99.90
71837;DHT22;59686;51.716;7.016;2024-02-16T00:02:38;12.70;99.90
71837;DHT22;59686;51.716;7.016;2024-02-16T00:05:06;12.80;99.90
71837;DHT22;59686;51.716;7.016;2024-02-16T00:07:33;12.80;99.90
71837;DHT22;59686;51.716;7.016;2024-02-16T00:09:59;12.70;99.90
71837;DHT22;59686;51.716;7.016;2024-02-16T00:12:25;12.70;99.90
71837;DHT22;59686;51.716;7.016;2024-02-16T00:14:51;12.70;99.90
71837;DHT22;59686;51.716;7.016;2024-02-16T00:17:17;12.70;99.90
71837;DHT22;59686;51.716;7.016;2024-02-16T00:19:42;12.70;99.90
71837;DHT22;59686;51.716;7.016;2024-02-16T00:22:08;12.70;99.90
71837;DHT22;59686;51.716;7.016;2024-02-16T00:24:34;12.80;99.90
71837;DHT22;59686;51.716;7.016;2024-02-16T00:27:02;12.70;99.90
71837;DHT22;59686;51.716;7.016;2024-02-16T00:29:31;12.70;99.90
71837;DHT22;59686;51.716;7.016;2024-02-16T00:31:57;12.70;99.90
71837;DHT22;59686;51.716;7.016;2024-02-16T00:34:25;12.80;99.90
71837;DHT22;59686;51.716;7.016;2024-02-16T00:36:51;12.70;99.90
71837;DHT22;59686;51.716;7.016;2024-02-16T00:39:18;12.80;99.90
71837;DHT22;59686;51.716;7.016;2024-02-16T00:41:43;12.70;99.90
71837;DHT22;59686;51.716;7.016;2024-02-16T00:44:09;12.70;99.90
71837;DHT22;59686;51.716;7.016;2024-02-16T00:46:36;12.70;99.90
71837;DHT22;59686;51.716;7.016;2024-02-16T00:49:01;12.70;99.90
71837;DHT22;59686;51.716;7.016;2024-02-16T00:51:27;12.70;99.90
71837;DHT22;59686;51.716;7.016;2024-02-16T00:53:53;12.70;99.90
71837;DHT22;59686;51.716;7.016;2024-02-16T00:56:18;12.70;99.90
71837;DHT22;59686;51.716;7.016;2024-02-16T00:58:44;12.70;99.90
71837;DHT22;59686;51.716;7.016;2024-02-16T01:01:10;12.70;99.90
71837;DHT22;59686;51.716;7.016;2024-02-16T01:03:37;12.70;99.90
71837;DHT22;59686;51.716;7.016;2024-02-16T01:06:03;12.70;99.90
71837;DHT22;59686;51.716;7.016;2024-02-16T01:08:31;12.70;99.90
71837;DHT22;59686;51.716;7.016;2024-02-16T01:10:56;12.80;99.90
71837;DHT22;59686;51.716;7.016;2024-02-16T01:13:22;12.80;99.90
71837;DHT22;59686;51.716;7.016;2024-02-16T01:15:48;12.70;99.90
71837;DHT22;59686;51.716;7.016;2024-02-16T01:18:14;12.70;99.90
71837;DHT22;59686;51.716;7.016;2024-02-16T01:20:40;12.60;99.90
71837;DHT22;59686;51.716;7.016;2024-02-16T01:23:06;12.70;99.90
71837;DHT22;59686;51.716;7.016;2024-02-16T01:25:31;12.70;99.90
71837;DHT22;59686;51.716;7.016;2024-02-16T01:27:57;12.70;99.90
71837;DHT22;59686;51.716;7.016;2024-02-16T01:30:24;12.80;99.90
71837;DHT22;59686;51.716;7.016;2024-02-16T01:32:50;12.70;99.90
71837;DHT22;59686;51.716;7.016;2024-02-16T01:35:15;12.60;99.90
71837;DHT22;59686;51.716;7.016;2024-02-16T01:37:41;12.70;99.90
71837;DHT22;59686;51.716;7.016;2024-02-16T01:40:09;12.70;99.90
71837;DHT22;59686;51.716;7.016;2024-02-16T01:42:40;12.70;99.90
71837;DHT22;59686;51.716;7.016;2024-02-16T01:45:06;12.70;99.90
71837;DHT22;59686;51.716;7.016;2024-02-16T01:47:34;12.70;99.90
71837;DHT22;59686;51.716;7.016;2024-02-16T01:50:01;12.70;99.90
71837;DHT22;59686;51.716;7.016;2024-02-16T01:52:28;12.60;99.90
71837;DHT22;59686;51.716;7.016;2024-02-16T01:54:54;12.60;99.90
71837;DHT22;59686;51.716;7.016;2024-02-16T01:57:20;12.70;99.90
71837;DHT22;59686;51.716;7.016;2024-02-16T01:59:45;12.70;99.90
71837;DHT22;59686;51.716;7.016;2024-02-16T02:02:11;12.70;99.90
71837;DHT22;59686;51.716;7.016;2024-02-16T02:04:37;12.60;99.90
71837;DHT22;59686;51.716;7.016;2024-02-16T02:07:13;12.70;99.90
71837;DHT22;59686;51.716;7.016;2024-02-16T02:09:39;12.70;99.90
71837;DHT22;59686;51.716;7.016;2024-02-16T02:12:05;12.70;99.90
71837;DHT22;59686;51.716;7.016;2024-02-16T02:14:31;12.70;99.90
71837;DHT22;59686;51.716;7.016;2024-02-16T02:16:56;12.70;99.90
71837;DHT22;59686;51.716;7.016;2024-02-16T02:19:22;12.70;99.90
71837;DHT22;59686;51.716;7.016;2024-02-16T02:21:48;12.60;99.90
71837;DHT22;59686;51.716;7.016;2024-02-16T02:24:13;12.70;99.90
71837;DHT22;59686;51.716;7.016;2024-02-16T02:26:39;12.70;99.90
71837;DHT22;59686;51.716;7.016;2024-02-16T02:29:05;12.60;99.90
71837;DHT22;59686;51.716;7.016;2024-02-16T02:31:31;12.60;99.90
71837;DHT22;59686;51.716;7.016;2024-02-16T02:33:56;12.70;99.90
71837;DHT22;59686;51.716;7.016;2024-02-16T02:36:22;12.70;99.90
71837;DHT22;59686;51.716;7.016;2024-02-16T02:38:47;12.60;99.90
71837;DHT22;59686;51.716;7.016;2024-02-16T02:41:13;12.70;99.90
71837;DHT22;59686;51.716;7.016;2024-02-16T02:43:41;12.60;99.90
71837;DHT22;59686;51.716;7.016;2024-02-16T02:46:07;12.60;99.90
71837;DHT22;59686;51.716;7.016;2024-02-16T02:48:33;12.70;99.90
71837;DHT22;59686;51.716;7.016;2024-02-16T02:50:59;12.60;99.90
71837;DHT22;59686;51.716;7.016;2024-02-16T02:53:28;12.60;99.90
71837;DHT22;59686;51.716;7.016;2024-02-16T02:55:54;12.70;99.90
71837;DHT22;59686;51.716;7.016;2024-02-16T02:58:19;12.60;99.90
71837;DHT22;59686;51.716;7.016;2024-02-16T03:00:45;12.60;99.90
71837;DHT22;59686;51.716;7.016;2024-02-16T03:03:11;12.60;99.90
71837;DHT22;59686;51.716;7.016;2024-02-16T03:05:37;12.60;99.90
71837;DHT22;59686;51.716;7.016;2024-02-16T03:08:03;12.60;99.90
71837;DHT22;59686;51.716;7.016;2024-02-16T03:10:29;12.60;99.90
71837;DHT22;59686;51.716;7.016;2024-02-16T03:13:00;12.60;99.90
71837;DHT22;59686;51.716;7.016;2024-02-16T03:15:26;12.60;99.90
71837;DHT22;59686;51.716;7.016;2024-02-16T03:17:52;12.70;99.90
71837;DHT22;59686;51.716;7.016;2024-02-16T03:20:17;12.60;99.90
71837;DHT22;59686;51.716;7.016;2024-02-16T03:22:43;12.60;99.90
71837;DHT22;59686;51.716;7.016;2024-02-16T03:25:09;12.60;99.90
71837;DHT22;59686;51.716;7.016;2024-02-16T03:27:34;12.60;99.90
71837;DHT22;59686;51.716;7.016;2024-02-16T03:30:00;12.60;99.90
71837;DHT22;59686;51.716;7.016;2024-02-16T03:32:27;12.60;99.90
71837;DHT22;59686;51.716;7.016;2024-02-16T03:34:53;12.50;99.90
71837;DHT22;59686;51.716;7.016;2024-02-16T03:37:18;12.60;99.90
71837;DHT22;59686;51.716;7.016;2024-02-16T03:39:44;12.60;99.90
71837;DHT22;59686;51.716;7.016;2024-02-16T03:42:10;12.60;99.90
71837;DHT22;59686;51.716;7.016;2024-02-16T03:44:36;12.50;99.90
71837;DHT22;59686;51.716;7.016;2024-02-16T03:47:01;12.50;99.90
71837;DHT22;59686;51.716;7.016;2024-02-16T03:49:27;12.60;99.90
71837;DHT22;59686;51.716;7.016;2024-02-16T03:51:55;12.60;99.90
71837;DHT22;59686;51.716;7.016;2024-02-16T03:54:21;12.50;99.90
71837;DHT22;59686;51.716;7.016;2024-02-16T03:56:47;12.50;99.90
71837;DHT22;59686;51.716;7.016;2024-02-16T03:59:14;12.50;99.90
71837;DHT22;59686;51.716;7.016;2024-02-16T04:01:39;12.60;99.90
71837;DHT22;59686;51.716;7.016;2024-02-16T04:04:07;12.60;99.90
71837;DHT22;59686;51.716;7.016;2024-02-16T04:06:33;12.60;99.90
71837;DHT22;59686;51.716;7.016;2024-02-16T04:08:58;12.50;99.90
71837;DHT22;59686;51.716;7.016;2024-02-16T04:11:24;12.50;99.90
71837;DHT22;59686;51.716;7.016;2024-02-16T04:13:49;12.60;99.90
71837;DHT22;59686;51.716;7.016;2024-02-16T04:16:15;12.60;99.90
71837;DHT22;59686;51.716;7.016;2024-02-16T04:18:41;12.60;99.90
71837;DHT22;59686;51.716;7.016;2024-02-16T04:21:07;12.50;99.90
71837;DHT22;59686;51.716;7.016;2024-02-16T04:23:32;12.50;99.90
71837;DHT22;59686;51.716;7.016;2024-02-16T04:25:58;12.50;99.90
71837;DHT22;59686;51.716;7.016;2024-02-16T04:28:24;12.50;99.90
71837;DHT22;59686;51.716;7.016;2024-02-16T04:30:50;12.60;99.90
71837;DHT22;59686;51.716;7.016;2024-02-16T04:33:15;12.50;99.90
71837;DHT22;59686;51.716;7.016;2024-02-16T04:35:41;12.50;99.90
71837;DHT22;59686;51.716;7.016;2024-02-16T04:38:07;12.60;99.90
71837;DHT22;59686;51.716;7.016;2024-02-16T04:40:37;12.60;99.90
71837;DHT22;59686;51.716;7.016;2024-02-16T04:43:03;12.60;99.90
71837;DHT22;59686;51.716;7.016;2024-02-16T04:45:28;12.50;99.90
71837;DHT22;59686;51.716;7.016;2024-02-16T04:47:55;12.50;99.90
71837;DHT22;59686;51.716;7.016;2024-02-16T04:50:21;12.50;99.90
71837;DHT22;59686;51.716;7.016;2024-02-16T04:52:47;12.50;99.90
71837;DHT22;59686;51.716;7.016;2024-02-16T04:55:13;12.50;99.90
71837;DHT22;59686;51.716;7.016;2024-02-16T04:57:38;12.50;99.90
71837;DHT22;59686;51.716;7.016;2024-02-16T05:00:04;12.50;99.90
71837;DHT22;59686;51.716;7.016;2024-02-16T05:02:30;12.50;99.90
71837;DHT22;59686;51.716;7.016;2024-02-16T05:04:56;12.50;99.90
71837;DHT22;59686;51.716;7.016;2024-02-16T05:07:22;12.60;99.90
71837;DHT22;59686;51.716;7.016;2024-02-16T05:09:47;12.50;99.90
71837;DHT22;59686;51.716;7.016;2024-02-16T05:12:15;12.50;99.90
71837;DHT22;59686;51.716;7.016;2024-02-16T05:14:40;12.50;99.90
71837;DHT22;59686;51.716;7.016;2024-02-16T05:17:06;12.60;99.90
71837;DHT22;59686;51.716;7.016;2024-02-16T05:19:33;12.50;99.90
71837;DHT22;59686;51.716;7.016;2024-02-16T05:22:00;12.50;99.90
71837;DHT22;59686;51.716;7.016;2024-02-16T05:24:25;12.40;99.90
71837;DHT22;59686;51.716;7.016;2024-02-16T05:26:51;12.50;99.90
71837;DHT22;59686;51.716;7.016;2024-02-16T05:29:17;12.40;99.90
71837;DHT22;59686;51.716;7.016;2024-02-16T05:31:42;12.60;99.90
71837;DHT22;59686;51.716;7.016;2024-02-16T05:34:08;12.60;99.90
71837;DHT22;59686;51.716;7.016;2024-02-16T05:36:34;12.40;99.90
71837;DHT22;59686;51.716;7.016;2024-02-16T05:39:01;12.50;99.90
71837;DHT22;59686;51.716;7.016;2024-02-16T05:41:35;12.50;99.90
71837;DHT22;59686;51.716;7.016;2024-02-16T05:44:03;12.50;99.90
71837;DHT22;59686;51.716;7.016;2024-02-16T05:46:30;12.50;99.90
71837;DHT22;59686;51.716;7.016;2024-02-16T05:48:55;12.50;99.90
71837;DHT22;59686;51.716;7.016;2024-02-16T05:51:21;12.50;99.90
71837;DHT22;59686;51.716;7.016;2024-02-16T05:53:47;12.50;99.90
71837;DHT22;59686;51.716;7.016;2024-02-16T05:56:12;12.40;99.90
71837;DHT22;59686;51.716;7.016;2024-02-16T05:58:38;12.40;99.90
71837;DHT22;59686;51.716;7.016;2024-02-16T06:01:04;12.50;99.90
71837;DHT22;59686;51.716;7.016;2024-02-16T06:03:29;12.40;99.90
71837;DHT22;59686;51.716;7.016;2024-02-16T06:05:55;12.50;99.90
71837;DHT22;59686;51.716;7.016;2024-02-16T06:08:21;12.40;99.90
71837;DHT22;59686;51.716;7.016;2024-02-16T06:10:46;12.40;99.90
71837;DHT22;59686;51.716;7.016;2024-02-16T06:13:17;12.40;99.90
71837;DHT22;59686;51.716;7.016;2024-02-16T06:15:43;12.30;99.90
71837;DHT22;59686;51.716;7.016;2024-02-16T06:18:09;12.40;99.90
71837;DHT22;59686;51.716;7.016;2024-02-16T06:20:35;12.40;99.90
71837;DHT22;59686;51.716;7.016;2024-02-16T06:23:00;12.50;99.90
71837;DHT22;59686;51.716;7.016;2024-02-16T06:25:27;12.40;99.90
71837;DHT22;59686;51.716;7.016;2024-02-16T06:27:52;12.40;99.90
71837;DHT22;59686;51.716;7.016;2024-02-16T06:30:18;12.50;99.90
71837;DHT22;59686;51.716;7.016;2024-02-16T06:32:44;12.50;99.90
71837;DHT22;59686;51.716;7.016;2024-02-16T06:35:10;12.50;99.90
71837;DHT22;59686;51.716;7.016;2024-02-16T06:37:38;12.40;99.90
71837;DHT22;59686;51.716;7.016;2024-02-16T06:40:05;12.50;99.90
71837;DHT22;59686;51.716;7.016;2024-02-16T06:42:31;12.40;99.90
71837;DHT22;59686;51.716;7.016;2024-02-16T06:44:57;12.40;99.90
71837;DHT22;59686;51.716;7.016;2024-02-16T06:47:22;12.40;99.90
71837;DHT22;59686;51.716;7.016;2024-02-16T06:49:50;12.40;99.90
71837;DHT22;59686;51.716;7.016;2024-02-16T06:52:16;12.50;99.90
71837;DHT22;59686;51.716;7.016;2024-02-16T06:54:42;12.50;99.90
71837;DHT22;59686;51.716;7.016;2024-02-16T06:57:07;12.40;99.90
71837;DHT22;59686;51.716;7.016;2024-02-16T06:59:33;12.50;99.90
71837;DHT22;59686;51.716;7.016;2024-02-16T07:01:59;12.40;99.90
71837;DHT22;59686;51.716;7.016;2024-02-16T07:04:24;12.40;99.90
71837;DHT22;59686;51.716;7.016;2024-02-16T07:06:50;12.40;99.90
71837;DHT22;59686;51.716;7.016;2024-02-16T07:09:16;12.40;99.90
71837;DHT22;59686;51.716;7.016;2024-02-16T07:11:41;12.40;99.90
71837;DHT22;59686;51.716;7.016;2024-02-16T07:14:08;12.40;99.90
71837;DHT22;59686;51.716;7.016;2024-02-16T07:16:34;12.40;99.90
71837;DHT22;59686;51.716;7.016;2024-02-16T07:19:00;12.40;99.90
71837;DHT22;59686;51.716;7.016;2024-02-16T07:21:26;12.60;99.90
71837;DHT22;59686;51.716;7.016;2024-02-16T07:23:52;12.50;99.90
71837;DHT22;59686;51.716;7.016;2024-02-16T07:26:18;12.40;99.90
71837;DHT22;59686;51.716;7.016;2024-02-16T07:28:44;12.50;99.90
71837;DHT22;59686;51.716;7.016;2024-02-16T07:31:10;12.40;99.90
71837;DHT22;59686;51.716;7.016;2024-02-16T07:33:36;12.50;99.90
71837;DHT22;59686;51.716;7.016;2024-02-16T07:36:03;12.40;99.90
71837;DHT22;59686;51.716;7.016;2024-02-16T07:38:28;12.50;99.90
71837;DHT22;59686;51.716;7.016;2024-02-16T07:40:54;12.40;99.90
71837;DHT22;59686;51.716;7.016;2024-02-16T07:43:20;12.50;99.90
71837;DHT22;59686;51.716;7.016;2024-02-16T07:45:47;12.40;99.90
71837;DHT22;59686;51.716;7.016;2024-02-16T07:48:13;12.50;99.90
71837;DHT22;59686;51.716;7.016;2024-02-16T07:50:39;12.40;99.90
71837;DHT22;59686;51.716;7.016;2024-02-16T07:53:05;12.60;99.90
71837;DHT22;59686;51.716;7.016;2024-02-16T07:55:30;12.50;99.90
71837;DHT22;59686;51.716;7.016;2024-02-16T07:57:56;12.50;99.90
71837;DHT22;59686;51.716;7.016;2024-02-16T08:00:22;12.50;99.90
71837;DHT22;59686;51.716;7.016;2024-02-16T08:02:48;12.40;99.90
71837;DHT22;59686;51.716;7.016;2024-02-16T08:05:14;12.50;99.90
71837;DHT22;59686;51.716;7.016;2024-02-16T08:07:41;12.50;99.90
71837;DHT22;59686;51.716;7.016;2024-02-16T08:10:08;12.60;99.90
71837;DHT22;59686;51.716;7.016;2024-02-16T08:12:34;12.50;99.90
71837;DHT22;59686;51.716;7.016;2024-02-16T08:15:02;12.50;99.90
71837;DHT22;59686;51.716;7.016;2024-02-16T08:17:29;12.50;99.90
71837;DHT22;59686;51.716;7.016;2024-02-16T08:19:56;12.50;99.90
71837;DHT22;59686;51.716;7.016;2024-02-16T08:22:22;12.50;99.90
71837;DHT22;59686;51.716;7.016;2024-02-16T08:24:48;12.50;99.90
71837;DHT22;59686;51.716;7.016;2024-02-16T08:27:15;12.50;99.90
71837;DHT22;59686;51.716;7.016;2024-02-16T08:29:42;12.50;99.90
71837;DHT22;59686;51.716;7.016;2024-02-16T08:32:08;12.50;99.90
71837;DHT22;59686;51.716;7.016;2024-02-16T08:34:34;12.50;99.90
71837;DHT22;59686;51.716;7.016;2024-02-16T08:37:03;12.50;99.90
71837;DHT22;59686;51.716;7.016;2024-02-16T08:39:29;12.50;99.90
71837;DHT22;59686;51.716;7.016;2024-02-16T08:41:56;12.50;99.90
71837;DHT22;59686;51.716;7.016;2024-02-16T08:44:22;12.50;99.90
71837;DHT22;59686;51.716;7.016;2024-02-16T08:46:47;12.50;99.90
71837;DHT22;59686;51.716;7.016;2024-02-16T08:49:15;12.60;99.90
71837;DHT22;59686;51.716;7.016;2024-02-16T08:51:42;12.40;99.90
71837;DHT22;59686;51.716;7.016;2024-02-16T08:54:08;12.60;99.90
71837;DHT22;59686;51.716;7.016;2024-02-16T08:56:34;12.50;99.90
71837;DHT22;59686;51.716;7.016;2024-02-16T08:59:02;12.60;99.90
71837;DHT22;59686;51.716;7.016;2024-02-16T09:01:35;12.60;99.90
71837;DHT22;59686;51.716;7.016;2024-02-16T09:04:02;12.50;99.90
71837;DHT22;59686;51.716;7.016;2024-02-16T09:06:28;12.60;99.90
71837;DHT22;59686;51.716;7.016;2024-02-16T09:08:54;12.60;99.90
71837;DHT22;59686;51.716;7.016;2024-02-16T09:11:20;12.70;99.90
71837;DHT22;59686;51.716;7.016;2024-02-16T09:13:46;12.60;99.90
71837;DHT22;59686;51.716;7.016;2024-02-16T09:16:11;12.60;99.90
71837;DHT22;59686;51.716;7.016;2024-02-16T09:18:37;12.60;99.90
71837;DHT22;59686;51.716;7.016;2024-02-16T09:21:06;12.70;99.90
71837;DHT22;59686;51.716;7.016;2024-02-16T09:23:33;12.70;99.90
71837;DHT22;59686;51.716;7.016;2024-02-16T09:25:59;12.60;99.90
71837;DHT22;59686;51.716;7.016;2024-02-16T09:28:26;12.60;99.90
71837;DHT22;59686;51.716;7.016;2024-02-16T09:30:52;12.60;99.90
71837;DHT22;59686;51.716;7.016;2024-02-16T09:33:17;12.70;99.90
71837;DHT22;59686;51.716;7.016;2024-02-16T09:35:43;12.70;99.90
71837;DHT22;59686;51.716;7.016;2024-02-16T09:38:09;12.70;99.90
71837;DHT22;59686;51.716;7.016;2024-02-16T09:40:38;12.70;99.90
71837;DHT22;59686;51.716;7.016;2024-02-16T09:43:04;12.70;99.90
71837;DHT22;59686;51.716;7.016;2024-02-16T09:45:30;12.70;99.90
71837;DHT22;59686;51.716;7.016;2024-02-16T09:47:58;12.70;99.90
71837;DHT22;59686;51.716;7.016;2024-02-16T09:50:24;12.80;99.90
71837;DHT22;59686;51.716;7.016;2024-02-16T09:52:50;12.70;99.90
71837;DHT22;59686;51.716;7.016;2024-02-16T09:55:17;12.80;99.90
71837;DHT22;59686;51.716;7.016;2024-02-16T09:57:43;12.70;99.90
71837;DHT22;59686;51.716;7.016;2024-02-16T10:00:10;12.80;99.90
71837;DHT22;59686;51.716;7.016;2024-02-16T10:02:43;12.80;99.90
71837;DHT22;59686;51.716;7.016;2024-02-16T10:05:15;12.80;99.90
71837;DHT22;59686;51.716;7.016;2024-02-16T10:07:42;12.80;99.90
71837;DHT22;59686;51.716;7.016;2024-02-16T10:10:28;12.80;99.90
71837;DHT22;59686;51.716;7.016;2024-02-16T10:13:05;12.80;99.90
71837;DHT22;59686;51.716;7.016;2024-02-16T10:15:32;12.80;99.90
71837;DHT22;59686;51.716;7.016;2024-02-16T10:18:02;12.80;99.90
71837;DHT22;59686;51.716;7.016;2024-02-16T10:20:29;12.80;99.90
71837;DHT22;59686;51.716;7.016;2024-02-16T10:25:29;12.80;99.90
71837;DHT22;59686;51.716;7.016;2024-02-16T10:27:57;12.80;99.90
71837;DHT22;59686;51.716;7.016;2024-02-16T10:30:28;12.80;99.90
71837;DHT22;59686;51.716;7.016;2024-02-16T10:32:54;12.80;99.90
71837;DHT22;59686;51.716;7.016;2024-02-16T10:35:21;12.90;99.90
71837;DHT22;59686;51.716;7.016;2024-02-16T10:37:47;12.90;99.90
71837;DHT22;59686;51.716;7.016;2024-02-16T10:40:13;12.90;99.90
71837;DHT22;59686;51.716;7.016;2024-02-16T10:42:45;13.00;99.90
71837;DHT22;59686;51.716;7.016;2024-02-16T10:45:12;12.90;99.90
71837;DHT22;59686;51.716;7.016;2024-02-16T10:47:38;12.90;99.90
71837;DHT22;59686;51.716;7.016;2024-02-16T10:50:05;12.90;99.90
71837;DHT22;59686;51.716;7.016;2024-02-16T10:52:32;13.00;99.90
71837;DHT22;59686;51.716;7.016;2024-02-16T10:54:59;13.00;99.90
71837;DHT22;59686;51.716;7.016;2024-02-16T10:57:25;12.90;99.90
71837;DHT22;59686;51.716;7.016;2024-02-16T10:59:53;13.00;99.90
71837;DHT22;59686;51.716;7.016;2024-02-16T11:02:19;13.00;99.90
71837;DHT22;59686;51.716;7.016;2024-02-16T11:04:46;13.00;99.90
71837;DHT22;59686;51.716;7.016;2024-02-16T11:07:18;13.00;99.90
71837;DHT22;59686;51.716;7.016;2024-02-16T11:09:46;13.00;99.90
71837;DHT22;59686;51.716;7.016;2024-02-16T11:12:13;13.00;99.90
71837;DHT22;59686;51.716;7.016;2024-02-16T11:14:45;13.10;99.90
71837;DHT22;59686;51.716;7.016;2024-02-16T11:17:14;13.00;99.90
71837;DHT22;59686;51.716;7.016;2024-02-16T11:19:45;13.00;99.90
71837;DHT22;59686;51.716;7.016;2024-02-16T11:22:11;13.10;99.90
71837;DHT22;59686;51.716;7.016;2024-02-16T11:24:47;13.00;99.90
71837;DHT22;59686;51.716;7.016;2024-02-16T11:27:13;13.00;99.90
71837;DHT22;59686;51.716;7.016;2024-02-16T11:29:45;13.00;99.90
71837;DHT22;59686;51.716;7.016;2024-02-16T11:32:11;13.00;99.90
71837;DHT22;59686;51.716;7.016;2024-02-16T11:34:37;12.90;99.90
71837;DHT22;59686;51.716;7.016;2024-02-16T11:37:05;13.00;99.90
71837;DHT22;59686;51.716;7.016;2024-02-16T11:39:31;13.10;99.90
71837;DHT22;59686;51.716;7.016;2024-02-16T11:42:07;13.00;99.90
71837;DHT22;59686;51.716;7.016;2024-02-16T11:44:36;13.00;99.90
71837;DHT22;59686;51.716;7.016;2024-02-16T11:47:06;13.00;99.90
71837;DHT22;59686;51.716;7.016;2024-02-16T11:49:36;13.00;99.90
71837;DHT22;59686;51.716;7.016;2024-02-16T11:52:04;12.90;99.90
71837;DHT22;59686;51.716;7.016;2024-02-16T11:54:30;12.80;99.90
71837;DHT22;59686;51.716;7.016;2024-02-16T11:56:57;13.00;99.90
71837;DHT22;59686;51.716;7.016;2024-02-16T11:59:23;13.00;99.90
71837;DHT22;59686;51.716;7.016;2024-02-16T12:04:29;13.00;99.90
71837;DHT22;59686;51.716;7.016;2024-02-16T12:07:00;13.10;99.90
71837;DHT22;59686;51.716;7.016;2024-02-16T12:09:26;13.00;99.90
71837;DHT22;59686;51.716;7.016;2024-02-16T12:11:53;13.00;99.90
71837;DHT22;59686;51.716;7.016;2024-02-16T12:14:21;13.00;99.90
71837;DHT22;59686;51.716;7.016;2024-02-16T12:16:51;13.00;99.90
71837;DHT22;59686;51.716;7.016;2024-02-16T12:19:20;13.00;99.90
71837;DHT22;59686;51.716;7.016;2024-02-16T12:21:54;13.00;99.90
71837;DHT22;59686;51.716;7.016;2024-02-16T12:24:21;13.00;99.90
71837;DHT22;59686;51.716;7.016;2024-02-16T12:26:47;12.90;99.90
71837;DHT22;59686;51.716;7.016;2024-02-16T12:29:13;12.90;99.90
71837;DHT22;59686;51.716;7.016;2024-02-16T12:31:40;13.00;99.90
71837;DHT22;59686;51.716;7.016;2024-02-16T12:34:07;13.00;99.90
71837;DHT22;59686;51.716;7.016;2024-02-16T12:36:38;12.90;99.90
71837;DHT22;59686;51.716;7.016;2024-02-16T12:39:04;13.10;99.90
71837;DHT22;59686;51.716;7.016;2024-02-16T12:41:34;13.00;99.90
71837;DHT22;59686;51.716;7.016;2024-02-16T12:44:01;13.00;99.90
71837;DHT22;59686;51.716;7.016;2024-02-16T12:46:27;13.00;99.90
71837;DHT22;59686;51.716;7.016;2024-02-16T12:48:55;13.10;99.90
71837;DHT22;59686;51.716;7.016;2024-02-16T12:51:20;13.00;99.90
71837;DHT22;59686;51.716;7.016;2024-02-16T12:53:46;13.00;99.90
71837;DHT22;59686;51.716;7.016;2024-02-16T12:56:12;13.00;99.90
71837;DHT22;59686;51.716;7.016;2024-02-16T12:58:38;13.00;99.90
71837;DHT22;59686;51.716;7.016;2024-02-16T13:01:05;13.00;99.90
71837;DHT22;59686;51.716;7.016;2024-02-16T13:03:37;13.00;99.90
71837;DHT22;59686;51.716;7.016;2024-02-16T13:06:04;13.10;99.90
71837;DHT22;59686;51.716;7.016;2024-02-16T13:08:31;13.10;99.90
71837;DHT22;59686;51.716;7.016;2024-02-16T13:10:58;13.00;99.90
71837;DHT22;59686;51.716;7.016;2024-02-16T13:13:24;13.00;99.90
71837;DHT22;59686;51.716;7.016;2024-02-16T13:15:50;13.00;99.90
71837;DHT22;59686;51.716;7.016;2024-02-16T13:18:16;13.10;99.90
71837;DHT22;59686;51.716;7.016;2024-02-16T13:20:46;13.10;99.90
71837;DHT22;59686;51.716;7.016;2024-02-16T13:23:13;13.10;99.90
71837;DHT22;59686;51.716;7.016;2024-02-16T13:25:39;13.10;99.90
71837;DHT22;59686;51.716;7.016;2024-02-16T13:28:04;13.00;99.90
71837;DHT22;59686;51.716;7.016;2024-02-16T13:30:31;13.00;99.90
71837;DHT22;59686;51.716;7.016;2024-02-16T13:32:58;13.10;99.90
71837;DHT22;59686;51.716;7.016;2024-02-16T13:35:24;13.10;99.90
71837;DHT22;59686;51.716;7.016;2024-02-16T13:37:49;13.10;99.90
71837;DHT22;59686;51.716;7.016;2024-02-16T13:40:15;13.00;99.90
71837;DHT22;59686;51.716;7.016;2024-02-16T13:42:43;13.00;99.90
71837;DHT22;59686;51.716;7.016;2024-02-16T13:45:09;13.00;99.90
71837;DHT22;59686;51.716;7.016;2024-02-16T13:47:37;13.00;99.90
71837;DHT22;59686;51.716;7.016;2024-02-16T13:50:06;13.00;99.90
71837;DHT22;59686;51.716;7.016;2024-02-16T13:52:32;13.00;99.90
71837;DHT22;59686;51.716;7.016;2024-02-16T13:54:59;12.90;99.90
71837;DHT22;59686;51.716;7.016;2024-02-16T13:57:25;13.00;99.90
71837;DHT22;59686;51.716;7.016;2024-02-16T13:59:51;13.00;99.90
71837;DHT22;59686;51.716;7.016;2024-02-16T14:02:17;13.00;99.90
71837;DHT22;59686;51.716;7.016;2024-02-16T14:04:43;13.00;99.90
71837;DHT22;59686;51.716;7.016;2024-02-16T14:07:09;13.00;99.90
71837;DHT22;59686;51.716;7.016;2024-02-16T14:09:35;13.00;99.90
71837;DHT22;59686;51.716;7.016;2024-02-16T14:12:01;13.00;99.90
71837;DHT22;59686;51.716;7.016;2024-02-16T14:14:26;13.00;99.90
71837;DHT22;59686;51.716;7.016;2024-02-16T14:16:53;13.00;99.90
71837;DHT22;59686;51.716;7.016;2024-02-16T14:19:19;12.90;99.90
71837;DHT22;59686;51.716;7.016;2024-02-16T14:21:45;13.00;99.90
71837;DHT22;59686;51.716;7.016;2024-02-16T14:24:13;13.00;99.90
71837;DHT22;59686;51.716;7.016;2024-02-16T14:26:39;13.00;99.90
71837;DHT22;59686;51.716;7.016;2024-02-16T14:29:05;13.00;99.90
71837;DHT22;59686;51.716;7.016;2024-02-16T14:31:32;13.00;99.90
71837;DHT22;59686;51.716;7.016;2024-02-16T14:33:59;13.00;99.90
71837;DHT22;59686;51.716;7.016;2024-02-16T14:36:25;13.00;99.90
71837;DHT22;59686;51.716;7.016;2024-02-16T14:38:50;13.00;99.90
71837;DHT22;59686;51.716;7.016;2024-02-16T14:41:16;13.00;99.90
71837;DHT22;59686;51.716;7.016;2024-02-16T14:43:42;13.00;99.90
71837;DHT22;59686;51.716;7.016;2024-02-16T14:46:08;13.00;99.90
71837;DHT22;59686;51.716;7.016;2024-02-16T14:48:35;13.00;99.90
71837;DHT22;59686;51.716;7.016;2024-02-16T14:51:01;13.00;99.90
71837;DHT22;59686;51.716;7.016;2024-02-16T14:53:28;13.00;99.90
71837;DHT22;59686;51.716;7.016;2024-02-16T14:55:57;13.00;99.90
71837;DHT22;59686;51.716;7.016;2024-02-16T14:58:23;13.00;99.90
71837;DHT22;59686;51.716;7.016;2024-02-16T15:00:49;12.90;99.90
71837;DHT22;59686;51.716;7.016;2024-02-16T15:03:15;13.00;99.90
71837;DHT22;59686;51.716;7.016;2024-02-16T15:05:41;12.90;99.90
71837;DHT22;59686;51.716;7.016;2024-02-16T15:08:07;13.00;99.90
71837;DHT22;59686;51.716;7.016;2024-02-16T15:10:33;12.90;99.90
71837;DHT22;59686;51.716;7.016;2024-02-16T15:12:59;13.10;99.90
71837;DHT22;59686;51.716;7.016;2024-02-16T15:15:26;13.00;99.90
71837;DHT22;59686;51.716;7.016;2024-02-16T15:17:51;12.90;99.90
71837;DHT22;59686;51.716;7.016;2024-02-16T15:20:18;12.90;99.90
71837;DHT22;59686;51.716;7.016;2024-02-16T15:22:44;13.00;99.90
71837;DHT22;59686;51.716;7.016;2024-02-16T15:25:10;13.00;99.90
71837;DHT22;59686;51.716;7.016;2024-02-16T15:27:36;13.00;99.90
71837;DHT22;59686;51.716;7.016;2024-02-16T15:30:02;13.00;99.90